Time;durP1;ratioP1;P1;durP2;ratioP2;P2;SDS_P1;SDS_P2;PMS_P1;PMS_P2;Temp;Humidity;BMP_temperature;BMP_pressure;BME280_temperature;BME280_humidity;BME280_pressure;Samples;Min_cycle;Max_cycle;Signal;HPM_P1;HPM_P2
2021/12/27 00:01:07;;;;;;;13.37;5.87;;;-0.50;99.90;;;;;;5035186;28;20169;-63
2021/12/27 00:03:33;;;;;;;11.57;5.90;;;-0.50;99.90;;;;;;5034658;28;20517;-64
2021/12/27 00:05:59;;;;;;;13.13;6.00;;;-0.50;99.90;;;;;;5034797;28;20161;-65
2021/12/27 00:08:25;;;;;;;12.27;5.97;;;-0.50;99.90;;;;;;5035152;28;20173;-64
2021/12/27 00:10:51;;;;;;;13.80;6.13;;;-0.50;99.90;;;;;;5034728;28;20699;-64
2021/12/27 00:13:17;;;;;;;10.60;6.33;;;-0.50;99.90;;;;;;5035469;28;20196;-63
2021/12/27 00:15:43;;;;;;;11.03;5.50;;;-0.50;99.90;;;;;;5034319;28;20193;-64
2021/12/27 00:18:10;;;;;;;11.47;6.47;;;-0.50;99.90;;;;;;5034486;28;20623;-64
2021/12/27 00:20:36;;;;;;;11.63;5.70;;;-0.50;99.90;;;;;;5034301;28;20188;-64
2021/12/27 00:23:01;;;;;;;12.00;6.03;;;-0.50;99.90;;;;;;5034338;28;20597;-63
2021/12/27 00:25:29;;;;;;;11.27;6.03;;;-0.40;99.90;;;;;;5034380;28;20164;-64
2021/12/27 00:27:55;;;;;;;10.83;5.73;;;-0.40;99.90;;;;;;5035239;28;20578;-64
2021/12/27 00:30:22;;;;;;;15.40;6.43;;;-0.40;99.90;;;;;;5034524;28;20196;-64
2021/12/27 00:32:49;;;;;;;11.70;5.77;;;-0.40;99.90;;;;;;5034630;28;20193;-64
2021/12/27 00:35:15;;;;;;;10.53;5.63;;;-0.40;99.90;;;;;;5034181;28;20539;-64
2021/12/27 00:37:41;;;;;;;10.17;5.40;;;-0.30;99.90;;;;;;5034254;28;20169;-63
2021/12/27 00:40:09;;;;;;;11.97;6.33;;;-0.30;99.90;;;;;;5034681;28;20576;-64
2021/12/27 00:42:35;;;;;;;11.90;5.83;;;-0.30;99.90;;;;;;5034458;28;20536;-64
2021/12/27 00:45:01;;;;;;;7.90;5.03;;;-0.30;99.90;;;;;;5034328;28;20215;-64
2021/12/27 00:47:27;;;;;;;12.10;5.53;;;-0.30;99.90;;;;;;5034380;28;20537;-63
2021/12/27 00:49:52;;;;;;;9.53;5.40;;;-0.30;99.90;;;;;;5033826;28;20201;-63
2021/12/27 00:52:18;;;;;;;10.90;5.10;;;-0.30;99.90;;;;;;5034270;28;20172;-64
2021/12/27 00:54:44;;;;;;;10.63;6.03;;;-0.20;99.90;;;;;;5034246;28;20172;-64
2021/12/27 00:57:09;;;;;;;12.13;6.17;;;-0.30;99.90;;;;;;5032677;28;20466;-63
2021/12/27 00:59:35;;;;;;;10.87;5.83;;;-0.30;99.90;;;;;;5033755;28;20164;-64
2021/12/27 01:02:01;;;;;;;8.67;5.80;;;-0.20;99.90;;;;;;5033754;28;20168;-63
2021/12/27 01:04:26;;;;;;;13.20;5.97;;;-0.40;99.90;;;;;;5032821;28;20164;-64
2021/12/27 01:06:52;;;;;;;10.10;5.53;;;-0.40;99.90;;;;;;5031993;28;20240;-63
2021/12/27 01:14:45;;;;;;;11.77;5.80;;;-0.30;99.90;;;;;;5034247;28;20176;-63
2021/12/27 01:17:11;;;;;;;10.13;6.27;;;-0.30;99.90;;;;;;5033491;28;20163;-63
2021/12/27 01:19:37;;;;;;;9.67;5.20;;;-0.30;99.90;;;;;;5033670;28;20192;-64
2021/12/27 01:22:04;;;;;;;10.33;5.47;;;-0.30;99.90;;;;;;5033653;28;20162;-64
2021/12/27 01:24:30;;;;;;;11.63;5.90;;;-0.20;99.90;;;;;;5033332;28;20163;-64
2021/12/27 01:26:59;;;;;;;13.00;6.10;;;-0.30;99.90;;;;;;5033755;28;20568;-63
2021/12/27 01:29:24;;;;;;;11.70;6.50;;;-0.30;99.90;;;;;;5034089;28;20174;-63
2021/12/27 01:31:50;;;;;;;12.07;6.27;;;-0.30;99.90;;;;;;5033377;28;20164;-64
2021/12/27 01:34:16;;;;;;;11.17;6.03;;;-0.20;99.90;;;;;;5034053;28;20272;-64
2021/12/27 01:36:41;;;;;;;10.87;5.97;;;-0.30;99.90;;;;;;5033756;28;20232;-64
2021/12/27 01:39:07;;;;;;;13.57;5.37;;;-0.20;99.90;;;;;;5033971;28;20180;-64
2021/12/27 01:41:33;;;;;;;13.17;7.13;;;-0.20;99.90;;;;;;5033035;28;20515;-63
2021/12/27 01:43:58;;;;;;;11.47;6.27;;;-0.20;99.90;;;;;;5032577;28;20177;-63
2021/12/27 01:46:26;;;;;;;10.93;5.73;;;-0.20;99.90;;;;;;5033464;28;20170;-64
2021/12/27 01:48:56;;;;;;;12.57;6.53;;;-0.20;99.90;;;;;;5033116;28;20149;-64
2021/12/27 01:51:24;;;;;;;11.00;6.87;;;-0.20;99.90;;;;;;5033290;28;20663;-64
2021/12/27 01:53:51;;;;;;;11.47;6.07;;;-0.20;99.90;;;;;;5032699;28;20165;-64
2021/12/27 01:56:20;;;;;;;13.27;5.77;;;-0.20;99.90;;;;;;5033308;28;20165;-64
2021/12/27 01:58:47;;;;;;;12.27;5.87;;;-0.10;99.90;;;;;;5033020;28;20238;-64
2021/12/27 02:01:14;;;;;;;14.83;6.63;;;-0.10;99.90;;;;;;5033047;28;20169;-62
2021/12/27 02:03:41;;;;;;;11.37;6.03;;;-0.10;99.90;;;;;;5033108;28;20163;-64
2021/12/27 02:06:08;;;;;;;10.13;5.67;;;-0.10;99.90;;;;;;5032754;28;20165;-63
2021/12/27 02:08:39;;;;;;;10.23;5.87;;;-0.10;99.90;;;;;;5033191;28;20569;-63
2021/12/27 02:11:06;;;;;;;14.13;6.33;;;0.00;99.90;;;;;;5032622;28;20560;-63
2021/12/27 02:13:33;;;;;;;13.37;6.60;;;-0.10;99.90;;;;;;5029101;28;20640;-63
2021/12/27 02:15:58;;;;;;;13.80;6.07;;;-0.10;99.90;;;;;;5036538;28;20165;-64
2021/12/27 02:18:24;;;;;;;10.50;5.40;;;-0.10;99.90;;;;;;5036823;28;20670;-63
2021/12/27 02:20:50;;;;;;;13.13;6.60;;;0.00;99.90;;;;;;5036641;28;20181;-64
2021/12/27 02:23:16;;;;;;;11.50;6.77;;;0.00;99.90;;;;;;5037012;28;20168;-63
2021/12/27 02:25:46;;;;;;;14.40;6.73;;;0.00;99.90;;;;;;5037069;28;20295;-63
2021/12/27 02:28:12;;;;;;;15.00;7.00;;;0.00;99.90;;;;;;5037614;28;20204;-63
2021/12/27 02:30:40;;;;;;;11.00;6.10;;;0.10;99.90;;;;;;5037463;28;20198;-63
2021/12/27 02:33:06;;;;;;;11.60;6.13;;;0.00;99.90;;;;;;5037907;28;20185;-63
2021/12/27 02:35:55;;;;;;;11.53;6.20;;;0.10;99.90;;;;;;5038582;28;20292;-63
2021/12/27 02:38:31;;;;;;;11.80;6.07;;;0.10;99.90;;;;;;5038623;28;20171;-64
2021/12/27 02:40:57;;;;;;;11.47;6.40;;;0.10;99.90;;;;;;5044055;28;20159;-63
2021/12/27 02:43:26;;;;;;;11.73;6.40;;;0.10;99.90;;;;;;5046571;28;20265;-64
2021/12/27 02:46:02;;;;;;;9.23;5.60;;;0.10;99.90;;;;;;5038483;28;20205;-63
2021/12/27 02:48:33;;;;;;;12.83;6.20;;;0.10;99.90;;;;;;5036554;28;20163;-63
2021/12/27 02:50:59;;;;;;;14.63;6.60;;;0.10;99.90;;;;;;5036401;28;20197;-64
2021/12/27 02:53:25;;;;;;;12.07;6.70;;;0.10;99.90;;;;;;5036798;28;20219;-64
2021/12/27 02:55:54;;;;;;;9.30;6.00;;;0.20;99.90;;;;;;5036609;28;20184;-63
2021/12/27 02:58:20;;;;;;;11.73;6.30;;;0.10;99.90;;;;;;5036564;28;20211;-64
2021/12/27 03:00:56;;;;;;;9.47;5.93;;;0.10;99.90;;;;;;5035869;28;20259;-63
2021/12/27 03:03:22;;;;;;;10.53;5.93;;;0.10;99.90;;;;;;5036224;28;20215;-63
2021/12/27 03:05:49;;;;;;;13.93;6.50;;;0.10;99.90;;;;;;5036073;28;20170;-62
2021/12/27 03:08:16;;;;;;;10.90;6.17;;;0.10;99.90;;;;;;5036438;28;20299;-64
2021/12/27 03:10:46;;;;;;;12.03;7.03;;;0.20;99.90;;;;;;5037017;28;20195;-64
2021/12/27 03:13:27;;;;;;;12.73;6.33;;;0.10;99.90;;;;;;5035600;28;20518;-64
2021/12/27 03:15:55;;;;;;;12.33;6.70;;;0.10;99.90;;;;;;5036154;28;20169;-64
2021/12/27 03:18:21;;;;;;;10.57;6.17;;;0.10;99.90;;;;;;5036482;28;20176;-63
2021/12/27 03:20:48;;;;;;;11.47;6.13;;;0.10;99.90;;;;;;5036351;28;20168;-64
2021/12/27 03:23:14;;;;;;;13.20;6.90;;;0.10;99.90;;;;;;5036591;28;20195;-64
2021/12/27 03:25:40;;;;;;;9.77;5.60;;;0.10;99.90;;;;;;5035746;28;20240;-63
2021/12/27 03:28:07;;;;;;;11.80;5.53;;;0.10;99.90;;;;;;5035627;28;20200;-64
2021/12/27 03:30:33;;;;;;;10.80;5.80;;;0.10;99.90;;;;;;5035998;28;20244;-64
2021/12/27 03:32:59;;;;;;;8.27;5.70;;;0.10;99.90;;;;;;5036299;28;20187;-63
2021/12/27 03:35:27;;;;;;;9.53;6.00;;;0.10;99.90;;;;;;5036037;28;20249;-64
2021/12/27 03:37:58;;;;;;;13.67;6.67;;;0.10;99.90;;;;;;5034907;28;20184;-64
2021/12/27 03:40:25;;;;;;;10.10;6.40;;;0.10;99.90;;;;;;5036546;28;20258;-64
2021/12/27 03:42:51;;;;;;;14.37;6.63;;;0.20;99.90;;;;;;5036562;28;20544;-63
2021/12/27 03:45:27;;;;;;;13.73;6.90;;;0.20;99.90;;;;;;5036626;28;20157;-64
2021/12/27 03:47:53;;;;;;;13.67;6.63;;;0.20;99.90;;;;;;5036506;28;20564;-63
2021/12/27 03:50:19;;;;;;;10.03;6.23;;;0.20;99.90;;;;;;5035848;28;20200;-63
2021/12/27 03:52:46;;;;;;;11.53;5.97;;;0.20;99.90;;;;;;5037199;28;20175;-64
2021/12/27 03:55:12;;;;;;;11.47;6.17;;;0.20;99.90;;;;;;5037489;28;20177;-66
2021/12/27 03:57:40;;;;;;;12.57;6.40;;;0.20;99.90;;;;;;5038212;28;20312;-64
2021/12/27 04:00:30;;;;;;;10.53;6.27;;;0.20;99.90;;;;;;5040832;28;20168;-63
2021/12/27 04:02:59;;;;;;;9.67;6.40;;;0.30;99.90;;;;;;5039390;28;20227;-64
2021/12/27 04:05:25;;;;;;;12.33;6.40;;;0.30;99.90;;;;;;5036493;28;20212;-63
2021/12/27 04:08:03;;;;;;;11.57;6.33;;;0.30;99.90;;;;;;5034970;28;20163;-63
2021/12/27 04:10:29;;;;;;;12.10;5.90;;;0.30;99.90;;;;;;5034914;28;20189;-64
2021/12/27 04:12:56;;;;;;;13.40;6.70;;;0.30;99.90;;;;;;5035238;28;20219;-64
2021/12/27 04:15:21;;;;;;;11.13;5.87;;;0.30;99.90;;;;;;5035724;28;20288;-64
2021/12/27 04:17:47;;;;;;;10.37;6.47;;;0.30;99.90;;;;;;5038501;28;20578;-64
2021/12/27 04:20:13;;;;;;;11.47;6.60;;;0.20;99.90;;;;;;5038175;28;20169;-63
2021/12/27 04:22:39;;;;;;;12.77;7.27;;;0.30;99.90;;;;;;5040905;28;20249;-64
2021/12/27 04:25:05;;;;;;;12.63;6.77;;;0.20;99.90;;;;;;5037999;28;20216;-63
2021/12/27 04:27:30;;;;;;;12.27;6.53;;;0.20;99.90;;;;;;5037168;28;20173;-64
2021/12/27 04:29:56;;;;;;;11.93;6.57;;;0.10;99.90;;;;;;5037215;28;20616;-64
2021/12/27 04:32:22;;;;;;;12.47;6.50;;;0.20;99.90;;;;;;5036823;28;20506;-63
2021/12/27 04:34:48;;;;;;;13.83;7.73;;;0.30;99.90;;;;;;5036358;28;20176;-64
2021/12/27 04:37:14;;;;;;;13.63;7.23;;;0.10;99.90;;;;;;5035153;28;20660;-64
2021/12/27 04:39:39;;;;;;;15.53;7.80;;;0.20;99.90;;;;;;5035755;28;20188;-64
2021/12/27 04:42:07;;;;;;;13.13;7.00;;;0.20;99.90;;;;;;5036179;28;20165;-64
2021/12/27 04:44:44;;;;;;;15.50;6.73;;;0.20;99.90;;;;;;5036290;28;20275;-63
2021/12/27 04:47:13;;;;;;;14.17;6.60;;;0.20;99.90;;;;;;5036916;28;20602;-64
2021/12/27 04:49:38;;;;;;;11.80;7.27;;;0.20;99.90;;;;;;5036847;28;20165;-63
2021/12/27 04:52:04;;;;;;;15.37;7.53;;;0.20;99.90;;;;;;5037999;28;20220;-64
2021/12/27 04:54:30;;;;;;;13.17;7.00;;;0.10;99.90;;;;;;5034603;28;20161;-63
2021/12/27 04:56:55;;;;;;;13.20;6.90;;;0.10;99.90;;;;;;5033845;28;20169;-63
2021/12/27 04:59:21;;;;;;;10.57;6.80;;;0.10;99.90;;;;;;5034284;28;20561;-64
2021/12/27 05:01:46;;;;;;;15.07;8.00;;;0.10;99.90;;;;;;5034451;28;20162;-64
2021/12/27 05:04:12;;;;;;;11.97;7.13;;;0.10;99.90;;;;;;5033887;28;20660;-65
2021/12/27 05:06:38;;;;;;;15.27;7.17;;;0.10;99.90;;;;;;5033631;28;20185;-64
2021/12/27 05:09:03;;;;;;;12.03;6.80;;;0.10;99.90;;;;;;5034012;28;20166;-64
2021/12/27 05:11:31;;;;;;;13.57;6.83;;;0.10;99.90;;;;;;5034164;28;20267;-62
2021/12/27 05:13:57;;;;;;;12.10;7.10;;;0.10;99.90;;;;;;5034039;28;20162;-63
2021/12/27 05:16:23;;;;;;;10.40;6.73;;;0.10;99.90;;;;;;5033973;28;20203;-64
2021/12/27 05:18:49;;;;;;;10.93;6.43;;;0.10;99.90;;;;;;5033829;28;20215;-64
2021/12/27 05:21:14;;;;;;;12.57;7.50;;;0.10;99.90;;;;;;5033847;28;20609;-63
2021/12/27 05:23:40;;;;;;;13.50;7.17;;;0.10;99.90;;;;;;5033637;28;20244;-64
2021/12/27 05:26:07;;;;;;;10.10;6.63;;;0.10;99.90;;;;;;5034772;28;20475;-64
2021/12/27 05:28:32;;;;;;;11.57;6.93;;;0.10;99.90;;;;;;5039632;28;20178;-65
2021/12/27 05:30:59;;;;;;;11.67;7.27;;;0.10;99.90;;;;;;5034181;28;20561;-64
2021/12/27 05:33:25;;;;;;;13.53;7.07;;;0.10;99.90;;;;;;5033570;28;20234;-65
2021/12/27 05:35:51;;;;;;;13.80;6.53;;;0.10;99.90;;;;;;5033447;28;20685;-64
2021/12/27 05:38:16;;;;;;;13.67;7.53;;;0.10;99.90;;;;;;5033957;28;20184;-64
2021/12/27 05:40:42;;;;;;;15.57;7.20;;;0.10;99.90;;;;;;5033911;28;20292;-65
2021/12/27 05:43:08;;;;;;;15.60;8.57;;;0.10;99.90;;;;;;5033786;28;20508;-64
2021/12/27 05:45:36;;;;;;;17.60;8.40;;;0.10;99.90;;;;;;5034962;28;20220;-63
2021/12/27 05:48:04;;;;;;;15.07;7.83;;;0.10;99.90;;;;;;5034143;28;20169;-65
2021/12/27 05:50:30;;;;;;;14.50;6.90;;;0.10;99.90;;;;;;5033964;28;20575;-64
2021/12/27 05:52:56;;;;;;;15.33;7.87;;;0.10;99.90;;;;;;5037972;28;20203;-63
2021/12/27 05:55:22;;;;;;;14.27;7.83;;;0.10;99.90;;;;;;5037381;28;20223;-64
2021/12/27 05:57:47;;;;;;;14.93;7.53;;;0.10;99.90;;;;;;5038343;28;20165;-64
2021/12/27 06:00:14;;;;;;;13.43;7.47;;;0.10;99.90;;;;;;5037434;28;20163;-64
2021/12/27 06:02:41;;;;;;;13.20;7.23;;;0.10;99.90;;;;;;5035673;28;20244;-64
2021/12/27 06:05:07;;;;;;;16.03;7.50;;;0.10;99.90;;;;;;5035377;28;20575;-63
2021/12/27 06:07:33;;;;;;;13.27;7.27;;;0.10;99.90;;;;;;5033607;28;20613;-63
2021/12/27 06:09:58;;;;;;;16.83;8.00;;;0.00;99.90;;;;;;5032200;28;20221;-64
2021/12/27 06:12:24;;;;;;;12.97;7.23;;;0.10;99.90;;;;;;5032877;28;20176;-64
2021/12/27 06:14:50;;;;;;;12.60;7.23;;;0.10;99.90;;;;;;5032961;28;20512;-64
2021/12/27 06:17:16;;;;;;;14.30;7.60;;;0.10;99.90;;;;;;5032604;28;20196;-63
2021/12/27 06:19:41;;;;;;;12.63;7.57;;;0.20;99.90;;;;;;5033356;28;20480;-63
2021/12/27 06:22:08;;;;;;;16.27;7.10;;;0.10;99.90;;;;;;5032946;28;20174;-64
2021/12/27 06:24:34;;;;;;;13.87;7.20;;;0.10;99.90;;;;;;5033069;28;20255;-64
2021/12/27 06:27:00;;;;;;;11.40;6.60;;;0.10;99.90;;;;;;5033118;28;20308;-64
2021/12/27 06:29:25;;;;;;;14.77;7.13;;;0.10;99.90;;;;;;5032814;28;20252;-64
2021/12/27 06:31:51;;;;;;;12.63;7.23;;;0.10;99.90;;;;;;5032431;28;20197;-64
2021/12/27 06:34:17;;;;;;;13.83;7.20;;;0.10;99.90;;;;;;5033311;28;20176;-65
2021/12/27 06:36:43;;;;;;;16.37;7.47;;;0.20;99.90;;;;;;5032950;28;20228;-64
2021/12/27 06:39:09;;;;;;;15.63;7.50;;;0.20;99.90;;;;;;5032828;28;20166;-64
2021/12/27 06:41:34;;;;;;;13.87;7.70;;;0.20;99.90;;;;;;5032709;28;20178;-64
2021/12/27 06:44:01;;;;;;;13.37;7.30;;;0.20;99.90;;;;;;5033013;28;20157;-65
2021/12/27 06:46:26;;;;;;;12.77;6.93;;;0.20;99.90;;;;;;5033071;28;20237;-65
2021/12/27 06:48:52;;;;;;;13.67;7.57;;;0.20;99.90;;;;;;5032765;28;20196;-64
2021/12/27 06:51:18;;;;;;;12.53;7.80;;;0.20;99.90;;;;;;5031376;28;20258;-64
2021/12/27 06:53:44;;;;;;;11.83;7.03;;;0.30;99.90;;;;;;5034051;28;20446;-64
2021/12/27 06:56:09;;;;;;;12.30;6.63;;;0.20;99.90;;;;;;5038357;28;20164;-64
2021/12/27 06:58:35;;;;;;;13.13;7.57;;;0.20;99.90;;;;;;5033192;28;20215;-64
2021/12/27 07:01:01;;;;;;;13.60;6.83;;;0.20;99.90;;;;;;5033290;28;20180;-65
2021/12/27 07:03:27;;;;;;;13.60;7.40;;;0.20;99.90;;;;;;5031824;28;20644;-64
2021/12/27 07:05:52;;;;;;;17.00;7.00;;;0.30;99.90;;;;;;5036198;28;20558;-65
2021/12/27 07:08:19;;;;;;;13.87;7.27;;;0.30;99.90;;;;;;5037133;28;20157;-65
2021/12/27 07:10:45;;;;;;;12.83;7.17;;;0.20;99.90;;;;;;5036819;28;20659;-64
2021/12/27 07:13:10;;;;;;;11.67;6.53;;;0.20;99.90;;;;;;5036740;28;20169;-70
2021/12/27 07:15:41;;;;;;;15.00;7.10;;;0.30;99.90;;;;;;5042640;28;20171;-63
2021/12/27 07:18:08;;;;;;;12.13;6.87;;;0.20;99.90;;;;;;5049020;28;20226;-66
2021/12/27 07:20:35;;;;;;;13.98;8.27;;;0.20;99.90;;;;;;5052551;28;20524;-66
2021/12/27 07:23:01;;;;;;;13.20;6.87;;;0.20;99.90;;;;;;5051832;28;20165;-64
2021/12/27 07:25:26;;;;;;;12.43;6.73;;;0.20;99.90;;;;;;5054558;28;20593;-64
2021/12/27 07:27:52;;;;;;;12.57;7.10;;;0.20;99.90;;;;;;5052686;28;20180;-65
2021/12/27 07:30:18;;;;;;;15.67;7.87;;;0.30;99.90;;;;;;5046383;28;20204;-65
2021/12/27 07:32:43;;;;;;;12.20;6.90;;;0.20;99.90;;;;;;5050037;28;20184;-65
2021/12/27 07:35:10;;;;;;;13.00;6.87;;;0.20;99.90;;;;;;5048573;28;20242;-66
2021/12/27 07:37:36;;;;;;;11.83;6.50;;;0.20;99.90;;;;;;5053614;28;20188;-64
2021/12/27 07:40:04;;;;;;;13.07;6.93;;;0.40;99.90;;;;;;5054098;28;20245;-68
2021/12/27 07:42:29;;;;;;;12.60;7.70;;;0.30;99.90;;;;;;5053415;28;20181;-65
2021/12/27 07:44:55;;;;;;;12.53;7.03;;;0.20;99.90;;;;;;5052270;28;20167;-64
2021/12/27 07:47:21;;;;;;;12.60;7.77;;;0.20;99.90;;;;;;5051527;28;20503;-64
2021/12/27 07:49:46;;;;;;;17.03;7.57;;;0.30;99.90;;;;;;5050965;28;20162;-66
2021/12/27 07:52:12;;;;;;;13.37;7.43;;;0.30;99.90;;;;;;5048843;28;20168;-63
2021/12/27 07:54:37;;;;;;;15.30;7.90;;;0.20;99.90;;;;;;5052904;28;20161;-66
2021/12/27 07:57:04;;;;;;;14.47;8.37;;;0.30;99.90;;;;;;5051135;28;20191;-67
2021/12/27 07:59:29;;;;;;;14.67;7.97;;;0.30;99.90;;;;;;5050734;28;20163;-65
2021/12/27 08:01:57;;;;;;;13.50;6.63;;;0.40;99.90;;;;;;5051128;28;20229;-67
2021/12/27 08:04:23;;;;;;;12.40;6.83;;;0.40;99.90;;;;;;5051355;28;20157;-68
2021/12/27 08:06:49;;;;;;;15.63;7.77;;;0.40;99.90;;;;;;5041912;28;20183;-63
2021/12/27 08:09:15;;;;;;;12.30;7.03;;;0.40;99.90;;;;;;5038815;28;20467;-63
2021/12/27 08:11:41;;;;;;;9.40;6.13;;;0.50;99.90;;;;;;5038638;28;20199;-66
2021/12/27 08:14:06;;;;;;;12.50;6.93;;;0.40;99.90;;;;;;5038139;28;20161;-63
2021/12/27 08:16:32;;;;;;;10.70;6.93;;;0.50;99.90;;;;;;5037244;28;20175;-63
2021/12/27 08:18:58;;;;;;;14.80;7.00;;;0.50;99.90;;;;;;5038175;28;20167;-64
2021/12/27 08:21:25;;;;;;;12.80;6.77;;;0.60;99.90;;;;;;5037546;28;20170;-63
2021/12/27 08:23:52;;;;;;;11.00;6.07;;;0.60;99.90;;;;;;5037342;28;20270;-64
2021/12/27 08:26:18;;;;;;;13.90;7.10;;;0.60;99.90;;;;;;5035383;28;20602;-64
2021/12/27 08:28:46;;;;;;;11.83;6.30;;;0.60;99.90;;;;;;5035053;28;20468;-64
2021/12/27 08:31:12;;;;;;;11.63;6.50;;;0.60;99.90;;;;;;5034727;28;20207;-63
2021/12/27 08:33:38;;;;;;;14.07;6.40;;;0.60;99.90;;;;;;5034726;28;20181;-65
2021/12/27 08:36:04;;;;;;;13.00;7.00;;;0.60;99.90;;;;;;5034394;28;20700;-65
2021/12/27 08:38:29;;;;;;;12.80;6.23;;;0.50;99.90;;;;;;5035246;28;20211;-63
2021/12/27 08:40:55;;;;;;;10.13;5.83;;;0.60;99.90;;;;;;5032866;28;20252;-63
2021/12/27 08:43:21;;;;;;;11.57;6.60;;;0.50;99.90;;;;;;5035246;28;20161;-63
2021/12/27 08:45:46;;;;;;;13.10;6.70;;;0.60;99.90;;;;;;5035160;28;20600;-64
2021/12/27 08:48:12;;;;;;;12.67;6.83;;;0.60;99.90;;;;;;5034534;28;20168;-66
2021/12/27 08:50:39;;;;;;;9.30;6.60;;;0.60;99.90;;;;;;5034449;28;20280;-64
2021/12/27 08:53:05;;;;;;;12.32;6.97;;;0.60;99.90;;;;;;5034206;28;20417;-64
2021/12/27 08:55:32;;;;;;;8.23;4.63;;;0.60;99.90;;;;;;5052035;28;20178;-63
2021/12/27 08:57:58;;;;;;;12.40;6.47;;;0.60;99.90;;;;;;5034470;28;20497;-65
2021/12/27 09:00:24;;;;;;;11.73;6.30;;;0.60;99.90;;;;;;5035698;28;20165;-65
2021/12/27 09:02:50;;;;;;;11.37;6.73;;;0.60;99.90;;;;;;5034709;28;20236;-64
2021/12/27 09:05:15;;;;;;;13.63;7.70;;;0.60;99.90;;;;;;5034503;28;20172;-64
2021/12/27 09:07:41;;;;;;;14.83;7.70;;;0.60;99.90;;;;;;5034630;28;20242;-64
2021/12/27 09:10:08;;;;;;;16.50;8.27;;;0.60;99.90;;;;;;5034943;28;20203;-66
2021/12/27 09:12:34;;;;;;;11.77;6.70;;;0.60;99.90;;;;;;5037245;28;20184;-65
2021/12/27 09:14:59;;;;;;;13.03;7.50;;;0.60;99.90;;;;;;5037946;28;20546;-66
2021/12/27 09:17:25;;;;;;;11.77;6.80;;;0.80;99.90;;;;;;5037083;28;20248;-65
2021/12/27 09:19:51;;;;;;;10.90;6.93;;;0.70;99.90;;;;;;5038482;28;20241;-66
2021/12/27 09:22:28;;;;;;;15.40;8.57;;;0.70;99.90;;;;;;5038024;28;20165;-65
2021/12/27 09:24:53;;;;;;;15.23;8.55;;;0.80;99.90;;;;;;5037071;28;20420;-65
2021/12/27 09:27:19;;;;;;;16.83;8.23;;;0.80;99.90;;;;;;5036839;28;20223;-65
2021/12/27 09:29:45;;;;;;;12.10;7.60;;;0.80;99.90;;;;;;5037390;28;20184;-63
2021/12/27 09:32:12;;;;;;;11.90;7.20;;;0.80;99.90;;;;;;5037285;28;20211;-65
2021/12/27 09:34:39;;;;;;;12.93;7.30;;;0.80;99.90;;;;;;5035467;28;20166;-63
2021/12/27 09:37:06;;;;;;;14.67;7.50;;;0.90;99.90;;;;;;5034550;28;20261;-62
2021/12/27 09:39:31;;;;;;;12.37;7.97;;;0.90;99.90;;;;;;5037949;28;20214;-63
2021/12/27 09:41:57;;;;;;;15.93;8.00;;;0.90;99.90;;;;;;5036726;28;20522;-63
2021/12/27 09:44:23;;;;;;;15.50;7.53;;;0.90;99.90;;;;;;5036270;28;20169;-65
2021/12/27 09:46:48;;;;;;;19.17;7.70;;;0.90;99.90;;;;;;5038588;28;20169;-65
2021/12/27 09:49:17;;;;;;;11.63;7.03;;;1.00;99.90;;;;;;5042113;28;20165;-65
2021/12/27 09:51:45;;;;;;;13.40;7.93;;;0.90;99.90;;;;;;5037102;28;20224;-65
2021/12/27 09:54:11;;;;;;;14.03;7.30;;;1.00;99.90;;;;;;5032459;28;20176;-65
2021/12/27 10:03:23;;;;;;;13.30;7.40;;;1.10;99.90;;;;;;5034032;28;20161;-65
2021/12/27 10:05:48;;;;;;;11.97;6.83;;;1.20;99.90;;;;;;5033787;28;20235;-64
2021/12/27 10:08:18;;;;;;;11.97;7.37;;;1.20;99.90;;;;;;5034846;28;20177;-64
2021/12/27 10:14:14;;;;;;;11.17;7.00;;;1.30;99.90;;;;;;5036406;28;20215;-65
2021/12/27 10:16:53;;;;;;;14.77;6.83;;;1.30;99.90;;;;;;5046642;28;20162;-69
2021/12/27 10:19:22;;;;;;;18.10;8.60;;;1.30;99.90;;;;;;5049127;28;20161;-66
2021/12/27 10:21:51;;;;;;;14.53;7.57;;;1.30;99.90;;;;;;5048899;28;20157;-67
2021/12/27 10:24:27;;;;;;;11.17;7.10;;;1.30;99.90;;;;;;5048120;28;20172;-73
2021/12/27 10:26:55;;;;;;;13.23;7.20;;;1.40;99.90;;;;;;5044490;28;20168;-65
2021/12/27 10:29:26;;;;;;;16.30;7.90;;;1.40;99.90;;;;;;5041090;28;20652;-65
2021/12/27 10:32:08;;;;;;;13.43;7.40;;;1.30;99.90;;;;;;5045909;28;20227;-65
2021/12/27 10:34:48;;;;;;;10.70;6.70;;;1.30;99.90;;;;;;5043512;28;20644;-67
2021/12/27 10:37:24;;;;;;;14.60;7.30;;;1.30;99.90;;;;;;5046576;28;20169;-65
2021/12/27 10:39:55;;;;;;;13.53;7.00;;;1.30;99.90;;;;;;5049073;28;20224;-64
2021/12/27 10:42:24;;;;;;;13.03;7.40;;;1.30;99.90;;;;;;5048911;28;22257;-66
2021/12/27 10:44:53;;;;;;;14.60;8.47;;;1.30;99.90;;;;;;5046939;28;20200;-66
2021/12/27 10:47:25;;;;;;;11.37;6.97;;;1.30;99.90;;;;;;5048025;28;20184;-65
2021/12/27 10:49:51;;;;;;;13.73;7.43;;;1.40;99.90;;;;;;5059278;28;20187;-65
2021/12/27 10:52:17;;;;;;;13.37;7.17;;;1.40;99.90;;;;;;5059196;28;20181;-66
2021/12/27 10:54:42;;;;;;;14.90;8.40;;;1.50;99.90;;;;;;5052904;28;20183;-65
2021/12/27 10:57:10;;;;;;;13.83;7.53;;;1.50;99.90;;;;;;5039588;28;20181;-65
2021/12/27 10:59:35;;;;;;;14.17;7.53;;;1.40;99.90;;;;;;5039014;28;20262;-65
2021/12/27 11:05:27;;;;;;;17.10;7.93;;;1.40;99.90;;;;;;5034877;28;20273;-66
2021/12/27 11:08:03;;;;;;;14.43;8.33;;;1.30;99.90;;;;;;5058475;28;20175;-64
2021/12/27 11:10:30;;;;;;;15.07;8.73;;;1.40;99.90;;;;;;5057056;28;20300;-64
2021/12/27 11:12:59;;;;;;;14.43;8.63;;;1.30;99.90;;;;;;5056667;28;20165;-64
2021/12/27 11:15:35;;;;;;;15.07;8.97;;;1.30;99.90;;;;;;5058944;28;20176;-65
2021/12/27 11:18:12;;;;;;;16.67;8.67;;;1.30;99.90;;;;;;5060628;28;20153;-65
2021/12/27 11:20:45;;;;;;;16.10;8.17;;;1.40;99.90;;;;;;5058178;28;20168;-65
2021/12/27 11:23:13;;;;;;;16.83;8.30;;;1.30;99.90;;;;;;5054793;28;20211;-65
2021/12/27 11:25:41;;;;;;;16.37;8.50;;;1.30;99.90;;;;;;5059147;28;20168;-64
2021/12/27 11:28:27;;;;;;;16.67;8.97;;;1.40;99.90;;;;;;5058974;28;20191;-64
2021/12/27 11:30:53;;;;;;;17.53;9.30;;;1.50;99.90;;;;;;5059035;28;20215;-63
2021/12/27 11:33:22;;;;;;;13.20;7.43;;;1.50;99.90;;;;;;5058955;28;20263;-76
2021/12/27 11:35:57;;;;;;;14.20;8.17;;;2.60;99.90;;;;;;5055364;28;20305;-72
2021/12/27 11:38:36;;;;;;;14.23;8.00;;;2.70;99.90;;;;;;5055406;28;20168;-65
2021/12/27 11:41:05;;;;;;;18.37;9.13;;;2.00;99.90;;;;;;5055875;28;20171;-64
2021/12/27 11:43:53;;;;;;;16.47;8.93;;;1.60;99.90;;;;;;5055341;28;20164;-64
2021/12/27 11:46:20;;;;;;;12.30;7.53;;;1.60;99.90;;;;;;5055503;28;20251;-64
2021/12/27 11:52:32;;;;;;;13.87;7.97;;;1.60;99.90;;;;;;5054952;28;20322;-64
2021/12/27 11:54:59;;;;;;;13.83;8.53;;;1.60;99.90;;;;;;5055496;28;20168;-65
2021/12/27 11:57:56;;;;;;;17.03;7.80;;;1.60;99.90;;;;;;5055100;28;20156;-63
2021/12/27 12:03:44;;;;;;;16.37;9.07;;;1.50;99.90;;;;;;5034692;28;20256;-64
2021/12/27 12:06:37;;;;;;;13.30;8.80;;;1.60;99.90;;;;;;5034715;28;20185;-65
2021/12/27 12:09:14;;;;;;;15.77;8.80;;;1.60;99.90;;;;;;5035569;28;20338;-64
2021/12/27 12:11:40;;;;;;;13.37;7.90;;;1.60;99.90;;;;;;5035072;28;20301;-63
2021/12/27 12:14:29;;;;;;;13.20;7.30;;;1.50;99.90;;;;;;5034671;28;20161;-64
2021/12/27 12:20:36;;;;;;;17.80;9.60;;;1.60;99.90;;;;;;5029882;28;20420;-64
2021/12/27 12:23:06;;;;;;;14.13;7.70;;;1.70;99.90;;;;;;5033581;28;20184;-64
2021/12/27 12:25:32;;;;;;;14.30;8.57;;;1.70;99.90;;;;;;5034716;28;20608;-63
2021/12/27 12:28:01;;;;;;;16.00;8.57;;;1.60;99.90;;;;;;5034445;28;20575;-63
2021/12/27 12:30:33;;;;;;;18.10;8.87;;;1.60;99.90;;;;;;5034823;28;20197;-63
2021/12/27 12:33:01;;;;;;;17.20;8.97;;;1.60;99.90;;;;;;5034987;28;20181;-63
2021/12/27 12:35:40;;;;;;;15.53;7.90;;;1.60;99.90;;;;;;5032852;28;20229;-62
2021/12/27 12:38:27;;;;;;;18.63;8.90;;;1.70;99.90;;;;;;5034924;28;20586;-65
2021/12/27 12:41:06;;;;;;;16.00;8.93;;;1.70;99.90;;;;;;5046806;28;20190;-64
2021/12/27 12:43:34;;;;;;;18.03;9.73;;;1.60;99.90;;;;;;5071760;28;20188;-65
2021/12/27 12:46:11;;;;;;;16.53;7.93;;;1.60;99.90;;;;;;5036788;28;20181;-64
2021/12/27 12:48:36;;;;;;;17.90;9.20;;;1.60;99.90;;;;;;5030522;28;20199;-64
2021/12/27 12:51:02;;;;;;;17.10;8.87;;;1.60;99.90;;;;;;5039033;28;20212;-64
2021/12/27 12:53:32;;;;;;;16.40;9.00;;;1.70;99.90;;;;;;5056274;28;20182;-65
2021/12/27 12:56:03;;;;;;;18.57;9.60;;;1.60;99.90;;;;;;5036572;28;20260;-65
2021/12/27 12:58:37;;;;;;;16.43;8.77;;;1.70;99.90;;;;;;5035069;28;20238;-65
2021/12/27 13:01:09;;;;;;;15.27;8.50;;;1.60;99.90;;;;;;5031008;28;20169;-65
2021/12/27 13:03:35;;;;;;;14.63;9.17;;;1.60;99.90;;;;;;5034178;28;20256;-65
2021/12/27 13:06:04;;;;;;;14.40;8.17;;;1.50;99.90;;;;;;5030909;28;20181;-65
2021/12/27 13:08:30;;;;;;;12.73;8.23;;;1.60;99.90;;;;;;5034371;28;20219;-65
2021/12/27 13:10:58;;;;;;;16.83;9.90;;;1.50;99.90;;;;;;5034588;28;20200;-63
2021/12/27 13:13:24;;;;;;;19.60;9.83;;;1.60;99.90;;;;;;5037788;28;20181;-66
2021/12/27 13:16:02;;;;;;;18.03;9.53;;;1.50;99.90;;;;;;5058767;28;20184;-65
2021/12/27 13:18:33;;;;;;;24.17;11.27;;;1.50;99.90;;;;;;5070429;28;20186;-66